sensor_id;sensor_type;location;lat;lon;timestamp;P1;durP1;ratioP1;P2;durP2;ratioP2
61373;SDS011;47242;48.158;-1.586;2023-05-07T04:31:12;8.32;;;3.58;;
61373;SDS011;47242;48.158;-1.586;2023-05-07T04:33:56;6.00;;;3.10;;
61373;SDS011;47242;48.158;-1.586;2023-05-07T04:36:31;11.15;;;3.67;;
61373;SDS011;47242;48.158;-1.586;2023-05-07T04:39:25;9.00;;;3.80;;
61373;SDS011;47242;48.158;-1.586;2023-05-07T04:42:03;8.63;;;4.32;;
61373;SDS011;47242;48.158;-1.586;2023-05-07T04:44:32;6.55;;;3.65;;
61373;SDS011;47242;48.158;-1.586;2023-05-07T04:47:02;6.03;;;3.60;;
61373;SDS011;47242;48.158;-1.586;2023-05-07T04:49:27;5.85;;;3.15;;
61373;SDS011;47242;48.158;-1.586;2023-05-07T04:51:56;7.47;;;3.55;;
61373;SDS011;47242;48.158;-1.586;2023-05-07T04:54:21;5.07;;;3.22;;
61373;SDS011;47242;48.158;-1.586;2023-05-07T04:56:50;7.32;;;3.22;;
61373;SDS011;47242;48.158;-1.586;2023-05-07T04:59:25;10.35;;;3.95;;
61373;SDS011;47242;48.158;-1.586;2023-05-07T05:01:51;6.97;;;3.45;;
61373;SDS011;47242;48.158;-1.586;2023-05-07T05:04:25;6.78;;;3.35;;
61373;SDS011;47242;48.158;-1.586;2023-05-07T05:06:53;7.10;;;3.75;;
61373;SDS011;47242;48.158;-1.586;2023-05-07T05:09:25;10.68;;;3.67;;
61373;SDS011;47242;48.158;-1.586;2023-05-07T05:12:12;11.52;;;3.28;;
61373;SDS011;47242;48.158;-1.586;2023-05-07T05:14:52;5.53;;;3.22;;
61373;SDS011;47242;48.158;-1.586;2023-05-07T05:17:34;9.30;;;4.05;;
61373;SDS011;47242;48.158;-1.586;2023-05-07T05:22:46;10.30;;;3.67;;
61373;SDS011;47242;48.158;-1.586;2023-05-07T05:25:33;5.57;;;3.20;;
61373;SDS011;47242;48.158;-1.586;2023-05-07T05:28:18;9.35;;;3.95;;
61373;SDS011;47242;48.158;-1.586;2023-05-07T05:31:06;10.27;;;3.63;;
61373;SDS011;47242;48.158;-1.586;2023-05-07T05:33:59;7.53;;;3.90;;
61373;SDS011;47242;48.158;-1.586;2023-05-07T05:39:46;7.90;;;3.60;;
61373;SDS011;47242;48.158;-1.586;2023-05-07T05:45:56;8.27;;;3.97;;
61373;SDS011;47242;48.158;-1.586;2023-05-07T05:48:43;9.98;;;3.65;;
61373;SDS011;47242;48.158;-1.586;2023-05-07T05:51:25;8.40;;;3.83;;
61373;SDS011;47242;48.158;-1.586;2023-05-07T05:53:55;6.68;;;3.72;;
61373;SDS011;47242;48.158;-1.586;2023-05-07T05:56:56;8.63;;;4.00;;
61373;SDS011;47242;48.158;-1.586;2023-05-07T05:59:35;8.07;;;3.47;;
61373;SDS011;47242;48.158;-1.586;2023-05-07T06:02:22;8.05;;;4.07;;
61373;SDS011;47242;48.158;-1.586;2023-05-07T06:04:58;9.73;;;4.15;;
61373;SDS011;47242;48.158;-1.586;2023-05-07T06:07:23;11.18;;;4.05;;
61373;SDS011;47242;48.158;-1.586;2023-05-07T06:09:49;7.50;;;3.78;;
61373;SDS011;47242;48.158;-1.586;2023-05-07T06:12:15;7.00;;;3.72;;
61373;SDS011;47242;48.158;-1.586;2023-05-07T06:14:42;10.38;;;4.53;;
61373;SDS011;47242;48.158;-1.586;2023-05-07T06:17:08;6.70;;;3.95;;
61373;SDS011;47242;48.158;-1.586;2023-05-07T06:19:34;9.55;;;3.90;;
61373;SDS011;47242;48.158;-1.586;2023-05-07T06:22:00;6.95;;;3.60;;
61373;SDS011;47242;48.158;-1.586;2023-05-07T06:24:26;7.45;;;4.07;;
61373;SDS011;47242;48.158;-1.586;2023-05-07T06:26:52;8.07;;;4.63;;
61373;SDS011;47242;48.158;-1.586;2023-05-07T06:29:18;6.30;;;4.13;;
61373;SDS011;47242;48.158;-1.586;2023-05-07T06:31:43;4.30;;;2.80;;
61373;SDS011;47242;48.158;-1.586;2023-05-07T06:34:09;3.00;;;2.17;;
61373;SDS011;47242;48.158;-1.586;2023-05-07T06:36:35;4.30;;;2.38;;
61373;SDS011;47242;48.158;-1.586;2023-05-07T06:39:01;4.15;;;2.30;;
61373;SDS011;47242;48.158;-1.586;2023-05-07T06:41:26;3.85;;;1.90;;
61373;SDS011;47242;48.158;-1.586;2023-05-07T06:43:52;3.65;;;2.20;;
61373;SDS011;47242;48.158;-1.586;2023-05-07T06:46:18;3.63;;;2.20;;
61373;SDS011;47242;48.158;-1.586;2023-05-07T06:49:10;4.25;;;2.40;;
61373;SDS011;47242;48.158;-1.586;2023-05-07T06:51:36;5.22;;;2.10;;
61373;SDS011;47242;48.158;-1.586;2023-05-07T06:54:01;4.65;;;2.53;;
61373;SDS011;47242;48.158;-1.586;2023-05-07T06:56:29;5.93;;;3.53;;
61373;SDS011;47242;48.158;-1.586;2023-05-07T06:58:55;5.45;;;3.10;;
61373;SDS011;47242;48.158;-1.586;2023-05-07T07:01:23;6.05;;;3.25;;
61373;SDS011;47242;48.158;-1.586;2023-05-07T07:03:48;8.00;;;4.13;;
61373;SDS011;47242;48.158;-1.586;2023-05-07T07:06:14;7.82;;;3.80;;
61373;SDS011;47242;48.158;-1.586;2023-05-07T07:08:40;10.45;;;4.35;;
61373;SDS011;47242;48.158;-1.586;2023-05-07T07:11:05;10.88;;;4.82;;
61373;SDS011;47242;48.158;-1.586;2023-05-07T07:13:33;9.63;;;3.83;;
61373;SDS011;47242;48.158;-1.586;2023-05-07T07:15:59;10.13;;;4.68;;
61373;SDS011;47242;48.158;-1.586;2023-05-07T07:18:25;8.65;;;4.53;;
61373;SDS011;47242;48.158;-1.586;2023-05-07T07:20:51;9.35;;;4.68;;
61373;SDS011;47242;48.158;-1.586;2023-05-07T07:23:17;8.15;;;4.85;;
61373;SDS011;47242;48.158;-1.586;2023-05-07T07:25:42;8.50;;;4.95;;
61373;SDS011;47242;48.158;-1.586;2023-05-07T07:28:08;11.02;;;4.88;;
61373;SDS011;47242;48.158;-1.586;2023-05-07T07:30:33;10.32;;;5.28;;
61373;SDS011;47242;48.158;-1.586;2023-05-07T07:32:59;10.77;;;4.60;;
61373;SDS011;47242;48.158;-1.586;2023-05-07T07:35:33;11.45;;;5.45;;
61373;SDS011;47242;48.158;-1.586;2023-05-07T07:38:00;11.55;;;6.18;;
61373;SDS011;47242;48.158;-1.586;2023-05-07T07:40:26;11.48;;;6.28;;
61373;SDS011;47242;48.158;-1.586;2023-05-07T07:42:52;14.18;;;6.55;;
61373;SDS011;47242;48.158;-1.586;2023-05-07T07:45:18;12.70;;;6.13;;
61373;SDS011;47242;48.158;-1.586;2023-05-07T07:47:44;9.52;;;5.45;;
61373;SDS011;47242;48.158;-1.586;2023-05-07T07:50:10;11.32;;;5.88;;
61373;SDS011;47242;48.158;-1.586;2023-05-07T07:52:36;8.70;;;5.15;;
61373;SDS011;47242;48.158;-1.586;2023-05-07T07:55:02;11.48;;;5.93;;
61373;SDS011;47242;48.158;-1.586;2023-05-07T07:57:28;9.70;;;4.35;;
61373;SDS011;47242;48.158;-1.586;2023-05-07T07:59:54;10.25;;;4.97;;
61373;SDS011;47242;48.158;-1.586;2023-05-07T08:02:19;10.60;;;4.70;;
61373;SDS011;47242;48.158;-1.586;2023-05-07T08:04:45;9.88;;;4.30;;
61373;SDS011;47242;48.158;-1.586;2023-05-07T08:07:11;8.73;;;5.00;;
61373;SDS011;47242;48.158;-1.586;2023-05-07T08:09:37;8.13;;;5.32;;
61373;SDS011;47242;48.158;-1.586;2023-05-07T08:12:04;11.52;;;4.43;;
61373;SDS011;47242;48.158;-1.586;2023-05-07T08:14:33;9.00;;;4.43;;
61373;SDS011;47242;48.158;-1.586;2023-05-07T08:16:59;7.95;;;4.18;;
61373;SDS011;47242;48.158;-1.586;2023-05-07T08:19:25;8.60;;;3.85;;
61373;SDS011;47242;48.158;-1.586;2023-05-07T08:21:51;9.00;;;3.90;;
61373;SDS011;47242;48.158;-1.586;2023-05-07T08:24:17;6.88;;;3.70;;
61373;SDS011;47242;48.158;-1.586;2023-05-07T08:26:43;7.07;;;3.80;;
61373;SDS011;47242;48.158;-1.586;2023-05-07T08:29:10;9.25;;;4.13;;
61373;SDS011;47242;48.158;-1.586;2023-05-07T08:31:36;9.00;;;4.40;;
61373;SDS011;47242;48.158;-1.586;2023-05-07T08:34:03;9.20;;;4.47;;
61373;SDS011;47242;48.158;-1.586;2023-05-07T08:38:59;6.13;;;3.10;;
61373;SDS011;47242;48.158;-1.586;2023-05-07T08:41:25;5.15;;;3.00;;
61373;SDS011;47242;48.158;-1.586;2023-05-07T08:43:51;7.45;;;2.75;;
61373;SDS011;47242;48.158;-1.586;2023-05-07T08:46:19;5.78;;;2.92;;
61373;SDS011;47242;48.158;-1.586;2023-05-07T08:48:49;5.03;;;3.03;;
61373;SDS011;47242;48.158;-1.586;2023-05-07T08:51:16;6.05;;;2.42;;
61373;SDS011;47242;48.158;-1.586;2023-05-07T08:53:43;4.55;;;2.20;;
61373;SDS011;47242;48.158;-1.586;2023-05-07T08:56:10;4.65;;;2.33;;
61373;SDS011;47242;48.158;-1.586;2023-05-07T08:58:36;4.07;;;2.05;;
61373;SDS011;47242;48.158;-1.586;2023-05-07T09:01:20;3.38;;;2.22;;
61373;SDS011;47242;48.158;-1.586;2023-05-07T09:03:46;5.35;;;2.42;;
61373;SDS011;47242;48.158;-1.586;2023-05-07T09:06:12;3.35;;;2.22;;
61373;SDS011;47242;48.158;-1.586;2023-05-07T09:08:37;4.43;;;2.47;;
61373;SDS011;47242;48.158;-1.586;2023-05-07T09:11:03;4.50;;;2.70;;
61373;SDS011;47242;48.158;-1.586;2023-05-07T09:13:29;4.18;;;2.40;;
61373;SDS011;47242;48.158;-1.586;2023-05-07T09:15:55;4.05;;;2.30;;
61373;SDS011;47242;48.158;-1.586;2023-05-07T09:18:21;4.05;;;2.28;;
61373;SDS011;47242;48.158;-1.586;2023-05-07T09:20:48;4.50;;;2.70;;
61373;SDS011;47242;48.158;-1.586;2023-05-07T09:23:14;4.45;;;2.03;;
61373;SDS011;47242;48.158;-1.586;2023-05-07T09:25:40;3.92;;;2.05;;
61373;SDS011;47242;48.158;-1.586;2023-05-07T09:28:05;3.90;;;2.28;;
61373;SDS011;47242;48.158;-1.586;2023-05-07T09:30:32;3.67;;;2.03;;
61373;SDS011;47242;48.158;-1.586;2023-05-07T09:32:59;3.10;;;1.90;;
61373;SDS011;47242;48.158;-1.586;2023-05-07T09:35:26;6.28;;;2.17;;
61373;SDS011;47242;48.158;-1.586;2023-05-07T09:37:58;3.78;;;1.85;;
61373;SDS011;47242;48.158;-1.586;2023-05-07T09:40:25;3.13;;;1.85;;
61373;SDS011;47242;48.158;-1.586;2023-05-07T09:42:52;3.33;;;2.20;;
61373;SDS011;47242;48.158;-1.586;2023-05-07T09:45:25;3.03;;;1.80;;
61373;SDS011;47242;48.158;-1.586;2023-05-07T09:47:53;3.85;;;1.80;;
61373;SDS011;47242;48.158;-1.586;2023-05-07T09:50:22;2.55;;;1.40;;
61373;SDS011;47242;48.158;-1.586;2023-05-07T09:52:53;2.92;;;1.70;;
61373;SDS011;47242;48.158;-1.586;2023-05-07T09:55:20;2.20;;;1.52;;
61373;SDS011;47242;48.158;-1.586;2023-05-07T09:57:46;3.40;;;1.80;;
61373;SDS011;47242;48.158;-1.586;2023-05-07T10:00:15;2.90;;;1.88;;
61373;SDS011;47242;48.158;-1.586;2023-05-07T10:02:42;5.45;;;2.15;;
61373;SDS011;47242;48.158;-1.586;2023-05-07T10:05:13;3.97;;;1.80;;
61373;SDS011;47242;48.158;-1.586;2023-05-07T10:07:40;3.35;;;1.50;;
61373;SDS011;47242;48.158;-1.586;2023-05-07T10:10:06;4.50;;;1.90;;
61373;SDS011;47242;48.158;-1.586;2023-05-07T10:12:32;3.80;;;2.30;;
61373;SDS011;47242;48.158;-1.586;2023-05-07T10:15:07;2.72;;;1.95;;
61373;SDS011;47242;48.158;-1.586;2023-05-07T10:17:37;4.43;;;1.98;;
61373;SDS011;47242;48.158;-1.586;2023-05-07T10:20:04;4.18;;;1.88;;
61373;SDS011;47242;48.158;-1.586;2023-05-07T10:22:41;3.05;;;1.75;;
61373;SDS011;47242;48.158;-1.586;2023-05-07T10:25:18;3.70;;;1.83;;
61373;SDS011;47242;48.158;-1.586;2023-05-07T10:27:57;2.80;;;1.23;;
61373;SDS011;47242;48.158;-1.586;2023-05-07T10:32:59;4.50;;;2.00;;
61373;SDS011;47242;48.158;-1.586;2023-05-07T10:35:31;3.20;;;1.90;;
61373;SDS011;47242;48.158;-1.586;2023-05-07T10:38:01;3.20;;;2.13;;
61373;SDS011;47242;48.158;-1.586;2023-05-07T10:40:27;2.65;;;1.83;;
61373;SDS011;47242;48.158;-1.586;2023-05-07T10:42:55;3.80;;;2.20;;
61373;SDS011;47242;48.158;-1.586;2023-05-07T10:45:25;3.85;;;1.88;;
61373;SDS011;47242;48.158;-1.586;2023-05-07T10:50:36;3.92;;;2.58;;
61373;SDS011;47242;48.158;-1.586;2023-05-07T10:55:44;3.97;;;2.58;;
61373;SDS011;47242;48.158;-1.586;2023-05-07T11:00:55;5.20;;;2.50;;
61373;SDS011;47242;48.158;-1.586;2023-05-07T11:03:21;4.07;;;2.10;;
61373;SDS011;47242;48.158;-1.586;2023-05-07T11:05:47;4.05;;;2.30;;
61373;SDS011;47242;48.158;-1.586;2023-05-07T11:09:09;4.43;;;2.20;;
61373;SDS011;47242;48.158;-1.586;2023-05-07T11:14:10;3.22;;;1.73;;
61373;SDS011;47242;48.158;-1.586;2023-05-07T11:16:36;4.00;;;1.95;;
61373;SDS011;47242;48.158;-1.586;2023-05-07T11:19:05;4.30;;;2.13;;
61373;SDS011;47242;48.158;-1.586;2023-05-07T11:21:34;4.32;;;2.70;;
61373;SDS011;47242;48.158;-1.586;2023-05-07T11:24:00;4.38;;;2.75;;
61373;SDS011;47242;48.158;-1.586;2023-05-07T11:26:28;4.57;;;2.45;;
61373;SDS011;47242;48.158;-1.586;2023-05-07T11:28:56;5.10;;;2.30;;
61373;SDS011;47242;48.158;-1.586;2023-05-07T11:31:23;4.53;;;2.53;;
61373;SDS011;47242;48.158;-1.586;2023-05-07T11:33:51;4.65;;;2.25;;
61373;SDS011;47242;48.158;-1.586;2023-05-07T11:36:18;6.22;;;3.35;;
61373;SDS011;47242;48.158;-1.586;2023-05-07T11:38:44;4.00;;;2.33;;
61373;SDS011;47242;48.158;-1.586;2023-05-07T11:41:10;5.53;;;2.50;;
61373;SDS011;47242;48.158;-1.586;2023-05-07T11:43:36;4.95;;;2.20;;
61373;SDS011;47242;48.158;-1.586;2023-05-07T11:46:08;5.22;;;2.30;;
61373;SDS011;47242;48.158;-1.586;2023-05-07T11:48:35;4.20;;;2.22;;
61373;SDS011;47242;48.158;-1.586;2023-05-07T11:51:02;6.00;;;1.65;;
61373;SDS011;47242;48.158;-1.586;2023-05-07T11:53:36;3.03;;;1.92;;
61373;SDS011;47242;48.158;-1.586;2023-05-07T11:56:10;3.60;;;2.13;;
61373;SDS011;47242;48.158;-1.586;2023-05-07T11:58:36;5.80;;;2.42;;
61373;SDS011;47242;48.158;-1.586;2023-05-07T12:01:02;5.63;;;2.03;;
61373;SDS011;47242;48.158;-1.586;2023-05-07T12:03:28;5.68;;;2.45;;
61373;SDS011;47242;48.158;-1.586;2023-05-07T12:05:54;7.05;;;2.75;;
61373;SDS011;47242;48.158;-1.586;2023-05-07T12:08:20;6.88;;;2.95;;
61373;SDS011;47242;48.158;-1.586;2023-05-07T12:10:47;7.00;;;3.05;;
61373;SDS011;47242;48.158;-1.586;2023-05-07T12:13:21;8.25;;;3.30;;
61373;SDS011;47242;48.158;-1.586;2023-05-07T12:15:51;5.60;;;3.40;;
61373;SDS011;47242;48.158;-1.586;2023-05-07T12:18:17;5.97;;;3.25;;
61373;SDS011;47242;48.158;-1.586;2023-05-07T12:20:43;6.05;;;2.58;;
61373;SDS011;47242;48.158;-1.586;2023-05-07T12:23:10;11.00;;;2.10;;
61373;SDS011;47242;48.158;-1.586;2023-05-07T12:25:36;21.35;;;4.53;;
61373;SDS011;47242;48.158;-1.586;2023-05-07T12:28:03;6.63;;;2.45;;
61373;SDS011;47242;48.158;-1.586;2023-05-07T12:30:32;8.68;;;2.97;;
61373;SDS011;47242;48.158;-1.586;2023-05-07T12:33:02;5.22;;;2.00;;
61373;SDS011;47242;48.158;-1.586;2023-05-07T12:35:31;4.93;;;2.20;;
61373;SDS011;47242;48.158;-1.586;2023-05-07T12:38:01;6.65;;;3.13;;
61373;SDS011;47242;48.158;-1.586;2023-05-07T12:40:39;7.53;;;2.72;;
61373;SDS011;47242;48.158;-1.586;2023-05-07T12:43:07;3.97;;;1.80;;
61373;SDS011;47242;48.158;-1.586;2023-05-07T12:45:36;4.53;;;2.50;;
61373;SDS011;47242;48.158;-1.586;2023-05-07T12:48:06;4.95;;;1.95;;
61373;SDS011;47242;48.158;-1.586;2023-05-07T12:50:32;6.05;;;2.65;;
61373;SDS011;47242;48.158;-1.586;2023-05-07T12:52:58;5.53;;;1.92;;
61373;SDS011;47242;48.158;-1.586;2023-05-07T12:55:24;5.38;;;2.28;;
61373;SDS011;47242;48.158;-1.586;2023-05-07T12:57:50;3.45;;;1.95;;
61373;SDS011;47242;48.158;-1.586;2023-05-07T13:00:18;5.25;;;1.83;;
61373;SDS011;47242;48.158;-1.586;2023-05-07T13:03:01;4.40;;;2.47;;
61373;SDS011;47242;48.158;-1.586;2023-05-07T13:05:26;3.80;;;2.08;;
61373;SDS011;47242;48.158;-1.586;2023-05-07T13:07:53;4.45;;;1.83;;
61373;SDS011;47242;48.158;-1.586;2023-05-07T13:10:19;2.85;;;1.63;;
61373;SDS011;47242;48.158;-1.586;2023-05-07T13:12:45;3.70;;;1.85;;
61373;SDS011;47242;48.158;-1.586;2023-05-07T13:15:10;6.25;;;2.28;;
61373;SDS011;47242;48.158;-1.586;2023-05-07T13:17:36;5.80;;;2.20;;
61373;SDS011;47242;48.158;-1.586;2023-05-07T13:20:02;8.48;;;2.10;;
61373;SDS011;47242;48.158;-1.586;2023-05-07T13:22:28;8.13;;;2.60;;
61373;SDS011;47242;48.158;-1.586;2023-05-07T13:24:53;5.95;;;2.25;;
61373;SDS011;47242;48.158;-1.586;2023-05-07T13:27:19;4.40;;;1.92;;
61373;SDS011;47242;48.158;-1.586;2023-05-07T13:29:45;10.32;;;2.53;;
61373;SDS011;47242;48.158;-1.586;2023-05-07T13:32:10;3.72;;;2.00;;
61373;SDS011;47242;48.158;-1.586;2023-05-07T13:34:36;4.95;;;1.80;;
61373;SDS011;47242;48.158;-1.586;2023-05-07T13:37:02;5.20;;;1.80;;
61373;SDS011;47242;48.158;-1.586;2023-05-07T13:39:27;7.40;;;1.58;;
61373;SDS011;47242;48.158;-1.586;2023-05-07T13:41:53;4.10;;;1.55;;
61373;SDS011;47242;48.158;-1.586;2023-05-07T13:44:19;5.60;;;1.90;;
61373;SDS011;47242;48.158;-1.586;2023-05-07T13:46:44;2.25;;;1.40;;
61373;SDS011;47242;48.158;-1.586;2023-05-07T13:49:10;3.65;;;1.35;;
61373;SDS011;47242;48.158;-1.586;2023-05-07T13:51:37;2.05;;;1.15;;
61373;SDS011;47242;48.158;-1.586;2023-05-07T13:54:03;2.45;;;1.10;;
61373;SDS011;47242;48.158;-1.586;2023-05-07T13:56:29;3.90;;;1.40;;
61373;SDS011;47242;48.158;-1.586;2023-05-07T13:58:57;4.07;;;1.25;;
61373;SDS011;47242;48.158;-1.586;2023-05-07T14:01:23;6.30;;;1.50;;
61373;SDS011;47242;48.158;-1.586;2023-05-07T14:03:48;5.35;;;1.50;;
61373;SDS011;47242;48.158;-1.586;2023-05-07T14:06:14;5.03;;;2.65;;
61373;SDS011;47242;48.158;-1.586;2023-05-07T14:08:40;4.15;;;1.50;;
61373;SDS011;47242;48.158;-1.586;2023-05-07T14:11:05;4.25;;;1.42;;
61373;SDS011;47242;48.158;-1.586;2023-05-07T14:13:31;4.07;;;1.50;;
61373;SDS011;47242;48.158;-1.586;2023-05-07T14:15:57;5.15;;;1.58;;
61373;SDS011;47242;48.158;-1.586;2023-05-07T14:18:23;3.88;;;1.27;;
61373;SDS011;47242;48.158;-1.586;2023-05-07T14:20:48;3.33;;;1.17;;
61373;SDS011;47242;48.158;-1.586;2023-05-07T14:23:14;4.30;;;1.77;;
61373;SDS011;47242;48.158;-1.586;2023-05-07T14:25:42;5.57;;;1.70;;
61373;SDS011;47242;48.158;-1.586;2023-05-07T14:28:08;1.83;;;1.13;;
61373;SDS011;47242;48.158;-1.586;2023-05-07T14:30:34;3.45;;;1.13;;
61373;SDS011;47242;48.158;-1.586;2023-05-07T14:33:00;3.30;;;1.10;;
61373;SDS011;47242;48.158;-1.586;2023-05-07T14:35:25;3.17;;;1.27;;
61373;SDS011;47242;48.158;-1.586;2023-05-07T14:37:51;4.47;;;0.93;;
61373;SDS011;47242;48.158;-1.586;2023-05-07T14:40:16;2.65;;;1.17;;
61373;SDS011;47242;48.158;-1.586;2023-05-07T14:42:42;3.80;;;1.20;;
61373;SDS011;47242;48.158;-1.586;2023-05-07T14:45:08;2.72;;;1.27;;
61373;SDS011;47242;48.158;-1.586;2023-05-07T14:47:34;1.85;;;1.15;;
61373;SDS011;47242;48.158;-1.586;2023-05-07T14:50:00;1.90;;;0.90;;
61373;SDS011;47242;48.158;-1.586;2023-05-07T14:52:26;2.47;;;1.20;;
61373;SDS011;47242;48.158;-1.586;2023-05-07T14:54:52;3.85;;;1.48;;
61373;SDS011;47242;48.158;-1.586;2023-05-07T14:57:17;3.13;;;1.42;;
61373;SDS011;47242;48.158;-1.586;2023-05-07T14:59:44;2.60;;;1.00;;
61373;SDS011;47242;48.158;-1.586;2023-05-07T15:02:11;2.55;;;1.20;;
61373;SDS011;47242;48.158;-1.586;2023-05-07T15:04:37;6.35;;;1.45;;
61373;SDS011;47242;48.158;-1.586;2023-05-07T15:07:11;6.32;;;1.30;;
61373;SDS011;47242;48.158;-1.586;2023-05-07T15:09:40;3.15;;;1.13;;
61373;SDS011;47242;48.158;-1.586;2023-05-07T15:12:09;3.40;;;1.23;;
61373;SDS011;47242;48.158;-1.586;2023-05-07T15:14:34;2.75;;;0.90;;
61373;SDS011;47242;48.158;-1.586;2023-05-07T15:17:00;3.90;;;1.20;;
61373;SDS011;47242;48.158;-1.586;2023-05-07T15:19:26;2.90;;;1.42;;
61373;SDS011;47242;48.158;-1.586;2023-05-07T15:21:54;4.82;;;1.65;;
61373;SDS011;47242;48.158;-1.586;2023-05-07T15:24:22;4.00;;;1.10;;
61373;SDS011;47242;48.158;-1.586;2023-05-07T15:26:48;3.72;;;1.25;;
61373;SDS011;47242;48.158;-1.586;2023-05-07T15:29:14;2.25;;;1.30;;
61373;SDS011;47242;48.158;-1.586;2023-05-07T15:31:40;4.63;;;1.55;;
61373;SDS011;47242;48.158;-1.586;2023-05-07T15:34:05;3.13;;;1.33;;
61373;SDS011;47242;48.158;-1.586;2023-05-07T15:36:31;4.70;;;1.60;;
61373;SDS011;47242;48.158;-1.586;2023-05-07T15:38:57;3.10;;;1.42;;
61373;SDS011;47242;48.158;-1.586;2023-05-07T15:41:24;2.58;;;1.40;;
61373;SDS011;47242;48.158;-1.586;2023-05-07T15:43:50;5.15;;;1.40;;
61373;SDS011;47242;48.158;-1.586;2023-05-07T15:46:20;3.38;;;1.63;;
61373;SDS011;47242;48.158;-1.586;2023-05-07T15:48:49;5.72;;;1.42;;
61373;SDS011;47242;48.158;-1.586;2023-05-07T15:51:15;3.45;;;1.45;;
61373;SDS011;47242;48.158;-1.586;2023-05-07T15:53:45;2.88;;;1.55;;
61373;SDS011;47242;48.158;-1.586;2023-05-07T15:56:11;1.90;;;1.17;;
61373;SDS011;47242;48.158;-1.586;2023-05-07T15:58:37;2.40;;;1.35;;
61373;SDS011;47242;48.158;-1.586;2023-05-07T16:01:03;6.20;;;1.60;;
61373;SDS011;47242;48.158;-1.586;2023-05-07T16:03:29;2.15;;;1.10;;
61373;SDS011;47242;48.158;-1.586;2023-05-07T16:05:55;2.25;;;1.35;;
61373;SDS011;47242;48.158;-1.586;2023-05-07T16:08:25;3.15;;;1.30;;
61373;SDS011;47242;48.158;-1.586;2023-05-07T16:10:51;5.07;;;1.25;;
61373;SDS011;47242;48.158;-1.586;2023-05-07T16:13:16;3.10;;;0.95;;
61373;SDS011;47242;48.158;-1.586;2023-05-07T16:15:43;4.03;;;1.27;;
61373;SDS011;47242;48.158;-1.586;2023-05-07T16:18:12;1.67;;;1.00;;
61373;SDS011;47242;48.158;-1.586;2023-05-07T16:20:41;5.03;;;2.00;;
61373;SDS011;47242;48.158;-1.586;2023-05-07T16:23:08;3.05;;;1.40;;
61373;SDS011;47242;48.158;-1.586;2023-05-07T16:25:34;1.92;;;1.17;;
61373;SDS011;47242;48.158;-1.586;2023-05-07T16:28:00;2.92;;;1.15;;
61373;SDS011;47242;48.158;-1.586;2023-05-07T16:30:25;2.50;;;1.23;;
61373;SDS011;47242;48.158;-1.586;2023-05-07T16:32:51;4.93;;;2.05;;
61373;SDS011;47242;48.158;-1.586;2023-05-07T16:35:17;4.90;;;1.60;;
61373;SDS011;47242;48.158;-1.586;2023-05-07T16:37:43;6.43;;;2.60;;
61373;SDS011;47242;48.158;-1.586;2023-05-07T16:40:08;6.65;;;2.63;;
61373;SDS011;47242;48.158;-1.586;2023-05-07T16:42:34;4.85;;;2.15;;
61373;SDS011;47242;48.158;-1.586;2023-05-07T16:45:01;5.70;;;2.03;;
61373;SDS011;47242;48.158;-1.586;2023-05-07T16:47:28;3.72;;;1.85;;
61373;SDS011;47242;48.158;-1.586;2023-05-07T16:49:54;3.92;;;2.30;;
61373;SDS011;47242;48.158;-1.586;2023-05-07T16:52:20;4.55;;;1.75;;
61373;SDS011;47242;48.158;-1.586;2023-05-07T16:54:45;3.42;;;1.35;;
61373;SDS011;47242;48.158;-1.586;2023-05-07T16:57:11;4.75;;;1.73;;
61373;SDS011;47242;48.158;-1.586;2023-05-07T16:59:37;4.13;;;1.52;;
61373;SDS011;47242;48.158;-1.586;2023-05-07T17:02:03;7.25;;;1.80;;
61373;SDS011;47242;48.158;-1.586;2023-05-07T17:04:28;4.68;;;2.60;;
61373;SDS011;47242;48.158;-1.586;2023-05-07T17:06:56;5.47;;;3.13;;
61373;SDS011;47242;48.158;-1.586;2023-05-07T17:09:22;4.72;;;1.95;;
61373;SDS011;47242;48.158;-1.586;2023-05-07T17:11:48;8.25;;;2.42;;
61373;SDS011;47242;48.158;-1.586;2023-05-07T17:14:14;6.13;;;2.25;;
61373;SDS011;47242;48.158;-1.586;2023-05-07T17:16:39;8.57;;;3.80;;
61373;SDS011;47242;48.158;-1.586;2023-05-07T17:19:05;9.68;;;3.65;;
61373;SDS011;47242;48.158;-1.586;2023-05-07T17:21:31;7.80;;;3.58;;
61373;SDS011;47242;48.158;-1.586;2023-05-07T17:23:56;7.55;;;2.45;;
61373;SDS011;47242;48.158;-1.586;2023-05-07T17:26:22;6.05;;;2.08;;
61373;SDS011;47242;48.158;-1.586;2023-05-07T17:28:48;7.35;;;2.60;;
61373;SDS011;47242;48.158;-1.586;2023-05-07T17:31:16;7.30;;;1.75;;
61373;SDS011;47242;48.158;-1.586;2023-05-07T17:33:42;7.53;;;2.33;;
61373;SDS011;47242;48.158;-1.586;2023-05-07T17:36:07;5.72;;;2.00;;
61373;SDS011;47242;48.158;-1.586;2023-05-07T17:38:33;5.97;;;2.08;;
61373;SDS011;47242;48.158;-1.586;2023-05-07T17:40:59;5.97;;;2.10;;
61373;SDS011;47242;48.158;-1.586;2023-05-07T17:43:25;4.15;;;2.00;;
61373;SDS011;47242;48.158;-1.586;2023-05-07T17:45:51;4.60;;;2.10;;
61373;SDS011;47242;48.158;-1.586;2023-05-07T17:48:17;5.55;;;2.13;;
61373;SDS011;47242;48.158;-1.586;2023-05-07T17:53:33;9.68;;;2.28;;
61373;SDS011;47242;48.158;-1.586;2023-05-07T17:55:58;6.07;;;1.92;;
61373;SDS011;47242;48.158;-1.586;2023-05-07T17:58:24;6.32;;;2.15;;
61373;SDS011;47242;48.158;-1.586;2023-05-07T18:00:52;6.88;;;2.20;;
61373;SDS011;47242;48.158;-1.586;2023-05-07T18:03:19;5.13;;;1.95;;
61373;SDS011;47242;48.158;-1.586;2023-05-07T18:05:45;8.13;;;2.47;;
61373;SDS011;47242;48.158;-1.586;2023-05-07T18:08:10;8.48;;;2.10;;
61373;SDS011;47242;48.158;-1.586;2023-05-07T18:10:36;4.63;;;2.03;;
61373;SDS011;47242;48.158;-1.586;2023-05-07T18:13:02;5.65;;;2.00;;
61373;SDS011;47242;48.158;-1.586;2023-05-07T18:15:28;6.60;;;2.35;;
61373;SDS011;47242;48.158;-1.586;2023-05-07T18:17:53;8.48;;;3.40;;
61373;SDS011;47242;48.158;-1.586;2023-05-07T18:20:19;6.40;;;2.90;;
61373;SDS011;47242;48.158;-1.586;2023-05-07T18:22:45;8.55;;;3.40;;
61373;SDS011;47242;48.158;-1.586;2023-05-07T18:25:11;3.67;;;1.95;;
61373;SDS011;47242;48.158;-1.586;2023-05-07T18:27:36;6.28;;;3.08;;
61373;SDS011;47242;48.158;-1.586;2023-05-07T18:30:05;8.50;;;2.80;;
61373;SDS011;47242;48.158;-1.586;2023-05-07T18:32:34;7.43;;;2.38;;
61373;SDS011;47242;48.158;-1.586;2023-05-07T18:35:00;6.40;;;2.63;;
61373;SDS011;47242;48.158;-1.586;2023-05-07T18:37:25;7.82;;;2.88;;
61373;SDS011;47242;48.158;-1.586;2023-05-07T18:39:51;7.50;;;2.72;;
61373;SDS011;47242;48.158;-1.586;2023-05-07T18:42:17;8.43;;;4.53;;
61373;SDS011;47242;48.158;-1.586;2023-05-07T18:44:42;5.82;;;3.05;;
61373;SDS011;47242;48.158;-1.586;2023-05-07T18:47:08;8.30;;;3.80;;
61373;SDS011;47242;48.158;-1.586;2023-05-07T18:49:34;5.47;;;3.17;;
61373;SDS011;47242;48.158;-1.586;2023-05-07T18:52:00;7.07;;;3.10;;
61373;SDS011;47242;48.158;-1.586;2023-05-07T18:54:27;4.95;;;2.65;;
61373;SDS011;47242;48.158;-1.586;2023-05-07T18:56:52;5.82;;;2.00;;
61373;SDS011;47242;48.158;-1.586;2023-05-07T18:59:18;5.38;;;2.20;;
61373;SDS011;47242;48.158;-1.586;2023-05-07T19:01:44;7.22;;;2.40;;
61373;SDS011;47242;48.158;-1.586;2023-05-07T19:04:10;12.48;;;3.10;;
61373;SDS011;47242;48.158;-1.586;2023-05-07T19:06:36;5.93;;;2.75;;
61373;SDS011;47242;48.158;-1.586;2023-05-07T19:09:02;9.48;;;2.67;;
61373;SDS011;47242;48.158;-1.586;2023-05-07T19:11:29;4.38;;;2.50;;
61373;SDS011;47242;48.158;-1.586;2023-05-07T19:13:54;10.77;;;2.83;;
61373;SDS011;47242;48.158;-1.586;2023-05-07T19:16:20;6.25;;;2.38;;
61373;SDS011;47242;48.158;-1.586;2023-05-07T19:18:46;4.82;;;2.10;;
61373;SDS011;47242;48.158;-1.586;2023-05-07T19:21:11;4.60;;;2.05;;
61373;SDS011;47242;48.158;-1.586;2023-05-07T19:23:37;6.13;;;2.60;;
61373;SDS011;47242;48.158;-1.586;2023-05-07T19:26:05;5.68;;;2.05;;
61373;SDS011;47242;48.158;-1.586;2023-05-07T19:28:33;7.53;;;2.45;;
61373;SDS011;47242;48.158;-1.586;2023-05-07T19:30:58;6.63;;;2.75;;
61373;SDS011;47242;48.158;-1.586;2023-05-07T19:33:24;6.40;;;2.28;;
61373;SDS011;47242;48.158;-1.586;2023-05-07T19:35:51;7.80;;;2.40;;